Time;durP1;ratioP1;P1;durP2;ratioP2;P2;SDS_P1;SDS_P2;PMS_P1;PMS_P2;Temp;Humidity;BMP_temperature;BMP_pressure;BME280_temperature;BME280_humidity;BME280_pressure;Samples;Min_cycle;Max_cycle;Signal;HPM_P1;HPM_P2
2023/04/27 00:01:37;;;;;;;;;;;;;;;;;;7367446;19;1356;-63
2023/04/27 00:04:06;;;;;;;;;;;;;;;;;;7367854;19;770;-63
2023/04/27 00:06:34;;;;;;;;;;;;;;;;;;7367803;19;816;-63
2023/04/27 00:09:03;;;;;;;;;;;;;;;;;;7365401;19;1852;-63
2023/04/27 00:11:31;;;;;;;;;;;;;;;;;;7367066;19;1278;-63
2023/04/27 00:13:59;;;;;;;;;;;;;;;;;;7367292;19;810;-63
2023/04/27 00:16:27;;;;;;;;;;;;;;;;;;7367983;19;774;-64
2023/04/27 00:18:55;;;;;;;;;;;;;;;;;;7366837;19;810;-63
2023/04/27 00:21:23;;;;;;;;;;;;;;;;;;7367265;19;1296;-63
2023/04/27 00:23:51;;;;;;;;;;;;;;;;;;7367561;19;850;-63
2023/04/27 00:26:20;;;;;;;;;;;;;;;;;;7367529;19;888;-63
2023/04/27 00:28:51;;;;;;;;;;;;;;;;;;7363811;19;1858;-63
2023/04/27 00:31:19;;;;;;;;;;;;;;;;;;7366392;19;1296;-63
2023/04/27 00:33:47;;;;;;;;;;;;;;;;;;7366435;19;777;-63
2023/04/27 00:36:17;;;;;;;;;;;;;;;;;;7366944;19;799;-63
2023/04/27 00:38:45;;;;;;;;;;;;;;;;;;7363414;19;773;-63
2023/04/27 00:41:13;;;;;;;;;;;;;;;;;;7365461;19;890;-63
2023/04/27 00:43:43;;;;;;;;;;;;;;;;;;7365546;19;871;-64
2023/04/27 00:46:11;;;;;;;;;;;;;;;;;;7366409;19;840;-64
2023/04/27 00:48:39;;;;;;;;;;;;;;;;;;7366108;19;1850;-63
2023/04/27 00:51:08;;;;;;;;;;;;;;;;;;7365626;19;871;-64
2023/04/27 00:53:36;;;;;;;;;;;;;;;;;;7363585;19;1290;-63
2023/04/27 00:56:04;;;;;;;;;;;;;;;;;;7364313;19;815;-63
2023/04/27 00:58:32;;;;;;;;;;;;;;;;;;7364367;19;799;-63
2023/04/27 01:01:00;;;;;;;;;;;;;;;;;;7366060;19;818;-63
2023/04/27 01:03:28;;;;;;;;;;;;;;;;;;7363180;19;1439;-62
2023/04/27 01:06:00;;;;;;;;;;;;;;;;;;7365172;19;837;-63
2023/04/27 01:08:28;;;;;;;;;;;;;;;;;;7363798;19;1830;-63
2023/04/27 01:10:56;;;;;;;;;;;;;;;;;;7365085;19;794;-63
2023/04/27 01:13:24;;;;;;;;;;;;;;;;;;7363341;19;1346;-64
2023/04/27 01:15:52;;;;;;;;;;;;;;;;;;7366642;19;857;-63
2023/04/27 01:18:21;;;;;;;;;;;;;;;;;;7365532;19;810;-63
2023/04/27 01:20:49;;;;;;;;;;;;;;;;;;7365471;19;850;-63
2023/04/27 01:23:17;;;;;;;;;;;;;;;;;;7361962;19;1270;-64
2023/04/27 01:25:45;;;;;;;;;;;;;;;;;;7366071;19;809;-63
2023/04/27 01:28:13;;;;;;;;;;;;;;;;;;7364546;19;1826;-64
2023/04/27 01:30:41;;;;;;;;;;;;;;;;;;7364098;19;810;-64
2023/04/27 01:33:09;;;;;;;;;;;;;;;;;;7363047;19;1265;-63
2023/04/27 01:35:38;;;;;;;;;;;;;;;;;;7363900;19;874;-63
2023/04/27 01:38:06;;;;;;;;;;;;;;;;;;7363345;19;777;-62
2023/04/27 01:40:34;;;;;;;;;;;;;;;;;;7364036;19;794;-64
2023/04/27 01:43:02;;;;;;;;;;;;;;;;;;7363028;19;1274;-64
2023/04/27 01:45:31;;;;;;;;;;;;;;;;;;7363349;19;849;-63
2023/04/27 01:48:01;;;;;;;;;;;;;;;;;;7363164;19;1865;-64
2023/04/27 01:50:29;;;;;;;;;;;;;;;;;;7365243;19;1780;-64
2023/04/27 01:52:57;;;;;;;;;;;;;;;;;;7362395;19;1251;-63
2023/04/27 01:55:25;;;;;;;;;;;;;;;;;;7363106;19;756;-63
2023/04/27 01:57:53;;;;;;;;;;;;;;;;;;7362415;19;807;-62
2023/04/27 02:00:22;;;;;;;;;;;;;;;;;;7362793;19;862;-63
2023/04/27 02:02:52;;;;;;;;;;;;;;;;;;7363408;19;1301;-63
2023/04/27 02:05:20;;;;;;;;;;;;;;;;;;7365569;19;878;-63
2023/04/27 02:07:49;;;;;;;;;;;;;;;;;;7362330;19;858;-63
2023/04/27 02:10:17;;;;;;;;;;;;;;;;;;7360338;19;1841;-63
2023/04/27 02:12:46;;;;;;;;;;;;;;;;;;7362457;19;1293;-63
2023/04/27 02:15:14;;;;;;;;;;;;;;;;;;7362807;19;758;-63
2023/04/27 02:17:42;;;;;;;;;;;;;;;;;;7362421;19;800;-64
2023/04/27 02:20:12;;;;;;;;;;;;;;;;;;7364232;19;794;-63
2023/04/27 02:22:40;;;;;;;;;;;;;;;;;;7362674;19;1251;-63
2023/04/27 02:25:08;;;;;;;;;;;;;;;;;;7363088;19;755;-63
2023/04/27 02:27:36;;;;;;;;;;;;;;;;;;7363371;19;814;-64
2023/04/27 02:30:05;;;;;;;;;;;;;;;;;;7360178;19;1869;-63
2023/04/27 02:32:33;;;;;;;;;;;;;;;;;;7361022;19;1337;-64
2023/04/27 02:35:01;;;;;;;;;;;;;;;;;;7362655;19;843;-64
2023/04/27 02:37:30;;;;;;;;;;;;;;;;;;7363077;19;801;-64
2023/04/27 02:39:58;;;;;;;;;;;;;;;;;;7361890;19;815;-64
2023/04/27 02:42:26;;;;;;;;;;;;;;;;;;7360365;19;1282;-63
2023/04/27 02:44:54;;;;;;;;;;;;;;;;;;7363696;19;759;-64
2023/04/27 02:47:22;;;;;;;;;;;;;;;;;;7362193;19;906;-64
2023/04/27 02:49:50;;;;;;;;;;;;;;;;;;7362431;19;1853;-64
2023/04/27 02:52:18;;;;;;;;;;;;;;;;;;7363375;19;1262;-64
2023/04/27 02:54:47;;;;;;;;;;;;;;;;;;7363344;19;775;-64
2023/04/27 02:57:15;;;;;;;;;;;;;;;;;;7362558;19;841;-64
2023/04/27 02:59:43;;;;;;;;;;;;;;;;;;7361943;19;783;-64
2023/04/27 03:02:11;;;;;;;;;;;;;;;;;;7364821;19;1282;-64
2023/04/27 03:04:40;;;;;;;;;;;;;;;;;;7368562;19;918;-64
2023/04/27 03:07:08;;;;;;;;;;;;;;;;;;7369471;19;897;-64
2023/04/27 03:09:36;;;;;;;;;;;;;;;;;;7367080;19;1841;-64
2023/04/27 03:12:04;;;;;;;;;;;;;;;;;;7369333;19;1344;-64
2023/04/27 03:14:32;;;;;;;;;;;;;;;;;;7368373;19;866;-64
2023/04/27 03:17:02;;;;;;;;;;;;;;;;;;7370003;19;767;-64
2023/04/27 03:19:30;;;;;;;;;;;;;;;;;;7368192;19;918;-64
2023/04/27 03:21:58;;;;;;;;;;;;;;;;;;7369946;19;1329;-64
2023/04/27 03:24:27;;;;;;;;;;;;;;;;;;7371105;19;811;-64
2023/04/27 03:26:55;;;;;;;;;;;;;;;;;;7370303;19;876;-62
2023/04/27 03:29:23;;;;;;;;;;;;;;;;;;7368302;19;1865;-63
2023/04/27 03:31:51;;;;;;;;;;;;;;;;;;7367930;19;1274;-63
2023/04/27 03:34:20;;;;;;;;;;;;;;;;;;7370671;19;956;-64
2023/04/27 03:36:48;;;;;;;;;;;;;;;;;;7370456;19;823;-64
2023/04/27 03:39:16;;;;;;;;;;;;;;;;;;7368930;19;851;-65
2023/04/27 03:41:45;;;;;;;;;;;;;;;;;;7367421;19;1302;-65
2023/04/27 03:44:13;;;;;;;;;;;;;;;;;;7373519;19;1116;-65
2023/04/27 03:46:41;;;;;;;;;;;;;;;;;;7366875;19;1088;-63
2023/04/27 03:49:10;;;;;;;;;;;;;;;;;;7366416;19;1841;-64
2023/04/27 03:51:41;;;;;;;;;;;;;;;;;;7367822;19;1286;-64
2023/04/27 03:54:09;;;;;;;;;;;;;;;;;;7367545;19;793;-64
2023/04/27 03:56:37;;;;;;;;;;;;;;;;;;7366863;19;774;-64
2023/04/27 03:59:06;;;;;;;;;;;;;;;;;;7366009;19;837;-64
2023/04/27 04:01:38;;;;;;;;;;;;;;;;;;7366426;19;1346;-64
2023/04/27 04:04:06;;;;;;;;;;;;;;;;;;7366874;19;793;-64
2023/04/27 04:06:35;;;;;;;;;;;;;;;;;;7365918;19;754;-63
2023/04/27 04:09:03;;;;;;;;;;;;;;;;;;7365410;19;1845;-64
2023/04/27 04:11:31;;;;;;;;;;;;;;;;;;7366629;19;1293;-64
2023/04/27 04:14:01;;;;;;;;;;;;;;;;;;7365049;19;828;-64
2023/04/27 04:16:29;;;;;;;;;;;;;;;;;;7366510;19;827;-64
2023/04/27 04:18:57;;;;;;;;;;;;;;;;;;7365812;19;894;-64
2023/04/27 04:21:25;;;;;;;;;;;;;;;;;;7366161;19;1303;-64
2023/04/27 04:23:55;;;;;;;;;;;;;;;;;;7365925;19;803;-64
2023/04/27 04:26:24;;;;;;;;;;;;;;;;;;7365497;19;1167;-64
2023/04/27 04:28:52;;;;;;;;;;;;;;;;;;7366562;19;1817;-63
2023/04/27 04:31:20;;;;;;;;;;;;;;;;;;7366994;19;1282;-63
2023/04/27 04:33:48;;;;;;;;;;;;;;;;;;7366145;19;853;-63
2023/04/27 04:36:17;;;;;;;;;;;;;;;;;;7366608;19;806;-63
2023/04/27 04:38:46;;;;;;;;;;;;;;;;;;7365088;19;783;-63
2023/04/27 04:41:14;;;;;;;;;;;;;;;;;;7365558;19;958;-63
2023/04/27 04:43:42;;;;;;;;;;;;;;;;;;7366774;19;821;-63
2023/04/27 04:46:10;;;;;;;;;;;;;;;;;;7367140;19;855;-63
2023/04/27 04:48:38;;;;;;;;;;;;;;;;;;7365544;19;858;-63
2023/04/27 04:51:06;;;;;;;;;;;;;;;;;;7362434;19;1865;-63
2023/04/27 04:53:35;;;;;;;;;;;;;;;;;;7362417;19;1375;-63
2023/04/27 04:56:04;;;;;;;;;;;;;;;;;;7364973;19;818;-63
2023/04/27 04:58:32;;;;;;;;;;;;;;;;;;7364390;19;872;-63
2023/04/27 05:01:00;;;;;;;;;;;;;;;;;;7364577;19;870;-63
2023/04/27 05:03:28;;;;;;;;;;;;;;;;;;7362209;19;1274;-63
2023/04/27 05:05:56;;;;;;;;;;;;;;;;;;7366280;19;930;-63
2023/04/27 05:08:25;;;;;;;;;;;;;;;;;;7365950;19;735;-63
2023/04/27 05:10:53;;;;;;;;;;;;;;;;;;7364380;19;1847;-63
2023/04/27 05:13:23;;;;;;;;;;;;;;;;;;7363450;19;1333;-63
2023/04/27 05:15:51;;;;;;;;;;;;;;;;;;7366274;19;890;-63
2023/04/27 05:18:20;;;;;;;;;;;;;;;;;;7365034;19;927;-63
2023/04/27 05:20:48;;;;;;;;;;;;;;;;;;7366264;19;877;-64
2023/04/27 05:23:16;;;;;;;;;;;;;;;;;;7363542;19;1258;-64
2023/04/27 05:25:44;;;;;;;;;;;;;;;;;;7363372;19;1167;-63
2023/04/27 05:28:12;;;;;;;;;;;;;;;;;;7363157;19;818;-64
2023/04/27 05:30:40;;;;;;;;;;;;;;;;;;7363182;19;1841;-64
2023/04/27 05:33:08;;;;;;;;;;;;;;;;;;7363321;19;1311;-64
2023/04/27 05:35:36;;;;;;;;;;;;;;;;;;7366186;19;864;-64
2023/04/27 05:38:05;;;;;;;;;;;;;;;;;;7364959;19;915;-66
2023/04/27 05:40:33;;;;;;;;;;;;;;;;;;7368925;19;1180;-65
2023/04/27 05:43:04;;;;;;;;;;;;;;;;;;7363774;19;1384;-64
2023/04/27 05:45:32;;;;;;;;;;;;;;;;;;7365248;19;758;-65
2023/04/27 05:48:00;;;;;;;;;;;;;;;;;;7365544;19;853;-65
2023/04/27 05:50:28;;;;;;;;;;;;;;;;;;7363505;19;1842;-64
2023/04/27 05:52:56;;;;;;;;;;;;;;;;;;7363522;19;1282;-63
2023/04/27 05:55:24;;;;;;;;;;;;;;;;;;7367043;19;831;-63
2023/04/27 05:57:53;;;;;;;;;;;;;;;;;;7366175;19;821;-63
2023/04/27 06:00:21;;;;;;;;;;;;;;;;;;7367536;19;818;-63
2023/04/27 06:02:50;;;;;;;;;;;;;;;;;;7365230;19;1324;-63
2023/04/27 06:05:18;;;;;;;;;;;;;;;;;;7367470;19;843;-64
2023/04/27 06:07:46;;;;;;;;;;;;;;;;;;7367175;19;790;-64
2023/04/27 06:10:15;;;;;;;;;;;;;;;;;;7367080;19;1849;-64
2023/04/27 06:12:43;;;;;;;;;;;;;;;;;;7366146;19;1353;-64
2023/04/27 06:15:11;;;;;;;;;;;;;;;;;;7367577;19;798;-64
2023/04/27 06:17:39;;;;;;;;;;;;;;;;;;7366469;19;849;-64
2023/04/27 06:20:08;;;;;;;;;;;;;;;;;;7367700;19;813;-64
2023/04/27 06:22:36;;;;;;;;;;;;;;;;;;7364789;19;1265;-64
2023/04/27 06:25:04;;;;;;;;;;;;;;;;;;7366404;19;860;-64
2023/04/27 06:27:32;;;;;;;;;;;;;;;;;;7365656;19;814;-62
2023/04/27 06:30:00;;;;;;;;;;;;;;;;;;7365318;19;1850;-64
2023/04/27 06:32:29;;;;;;;;;;;;;;;;;;7363621;19;1282;-64
2023/04/27 06:34:57;;;;;;;;;;;;;;;;;;7363274;19;821;-63
2023/04/27 06:37:25;;;;;;;;;;;;;;;;;;7369325;19;795;-64
2023/04/27 06:39:54;;;;;;;;;;;;;;;;;;7369790;19;850;-63
2023/04/27 06:42:22;;;;;;;;;;;;;;;;;;7369264;19;1324;-64
2023/04/27 06:44:50;;;;;;;;;;;;;;;;;;7369846;19;881;-64
2023/04/27 06:47:18;;;;;;;;;;;;;;;;;;7369970;19;844;-64
2023/04/27 06:49:46;;;;;;;;;;;;;;;;;;7368907;19;1845;-64
2023/04/27 06:52:15;;;;;;;;;;;;;;;;;;7368649;19;1227;-64
2023/04/27 06:54:43;;;;;;;;;;;;;;;;;;7370442;19;820;-64
2023/04/27 06:57:11;;;;;;;;;;;;;;;;;;7369298;19;817;-64
2023/04/27 06:59:39;;;;;;;;;;;;;;;;;;7369151;19;827;-66
2023/04/27 07:02:07;;;;;;;;;;;;;;;;;;7368593;19;1277;-65
2023/04/27 07:04:36;;;;;;;;;;;;;;;;;;7369398;19;842;-63
2023/04/27 07:07:05;;;;;;;;;;;;;;;;;;7369851;19;881;-60
2023/04/27 07:09:33;;;;;;;;;;;;;;;;;;7368630;19;806;-64
2023/04/27 07:12:01;;;;;;;;;;;;;;;;;;7367254;19;1840;-64
2023/04/27 07:14:30;;;;;;;;;;;;;;;;;;7369347;19;842;-65
2023/04/27 07:16:58;;;;;;;;;;;;;;;;;;7368954;19;857;-64
2023/04/27 07:19:26;;;;;;;;;;;;;;;;;;7368926;19;791;-64
2023/04/27 07:21:54;;;;;;;;;;;;;;;;;;7368843;19;1171;-65
2023/04/27 07:24:23;;;;;;;;;;;;;;;;;;7369087;19;837;-64
2023/04/27 07:26:51;;;;;;;;;;;;;;;;;;7370385;19;864;-63
2023/04/27 07:29:19;;;;;;;;;;;;;;;;;;7368237;19;822;-64
2023/04/27 07:31:47;;;;;;;;;;;;;;;;;;7366751;19;1841;-64
2023/04/27 07:34:15;;;;;;;;;;;;;;;;;;7368978;19;841;-65
2023/04/27 07:36:44;;;;;;;;;;;;;;;;;;7369014;19;866;-64
2023/04/27 07:39:12;;;;;;;;;;;;;;;;;;7367225;19;807;-64
2023/04/27 07:41:40;;;;;;;;;;;;;;;;;;7368438;19;1351;-64
2023/04/27 07:44:08;;;;;;;;;;;;;;;;;;7367855;19;773;-65
2023/04/27 07:46:37;;;;;;;;;;;;;;;;;;7368663;19;790;-65
2023/04/27 07:49:05;;;;;;;;;;;;;;;;;;7366099;19;742;-65
2023/04/27 07:51:33;;;;;;;;;;;;;;;;;;7368604;19;1862;-65
2023/04/27 07:54:02;;;;;;;;;;;;;;;;;;7368603;19;851;-64
2023/04/27 07:56:30;;;;;;;;;;;;;;;;;;7368048;19;811;-64
2023/04/27 07:58:58;;;;;;;;;;;;;;;;;;7367419;19;817;-64
2023/04/27 08:01:26;;;;;;;;;;;;;;;;;;7368209;19;1290;-64
2023/04/27 08:03:54;;;;;;;;;;;;;;;;;;7368406;19;866;-64
2023/04/27 08:06:23;;;;;;;;;;;;;;;;;;7368520;19;809;-64
2023/04/27 08:08:51;;;;;;;;;;;;;;;;;;7367544;19;853;-65
2023/04/27 08:11:20;;;;;;;;;;;;;;;;;;7366463;19;1846;-64
2023/04/27 08:13:48;;;;;;;;;;;;;;;;;;7368092;19;934;-64
2023/04/27 08:16:16;;;;;;;;;;;;;;;;;;7368181;19;774;-64
2023/04/27 08:18:44;;;;;;;;;;;;;;;;;;7366575;19;854;-64
2023/04/27 08:21:12;;;;;;;;;;;;;;;;;;7367212;19;852;-64
2023/04/27 08:23:41;;;;;;;;;;;;;;;;;;7364685;19;1266;-62
2023/04/27 08:26:09;;;;;;;;;;;;;;;;;;7367433;19;814;-65
2023/04/27 08:28:37;;;;;;;;;;;;;;;;;;7366401;19;823;-64
2023/04/27 08:31:05;;;;;;;;;;;;;;;;;;7366141;19;1840;-64
2023/04/27 08:33:33;;;;;;;;;;;;;;;;;;7364898;19;1265;-65
2023/04/27 08:36:01;;;;;;;;;;;;;;;;;;7367464;19;778;-65
2023/04/27 08:38:29;;;;;;;;;;;;;;;;;;7366486;19;830;-64
2023/04/27 08:40:58;;;;;;;;;;;;;;;;;;7368340;19;865;-65
2023/04/27 08:43:26;;;;;;;;;;;;;;;;;;7365649;19;1323;-63
2023/04/27 08:45:55;;;;;;;;;;;;;;;;;;7368336;19;810;-65
2023/04/27 08:48:23;;;;;;;;;;;;;;;;;;7368147;19;886;-64
2023/04/27 08:50:51;;;;;;;;;;;;;;;;;;7367815;19;1833;-64
2023/04/27 08:53:20;;;;;;;;;;;;;;;;;;7366187;19;1270;-62
2023/04/27 08:55:48;;;;;;;;;;;;;;;;;;7368018;19;845;-65
2023/04/27 08:58:16;;;;;;;;;;;;;;;;;;7366393;19;852;-66
2023/04/27 09:00:45;;;;;;;;;;;;;;;;;;7365382;19;810;-65
2023/04/27 09:03:13;;;;;;;;;;;;;;;;;;7364379;19;1337;-65
2023/04/27 09:05:41;;;;;;;;;;;;;;;;;;7366828;19;822;-65
2023/04/27 09:08:10;;;;;;;;;;;;;;;;;;7365961;19;818;-65
2023/04/27 09:11:59;;;;;;;;;;;;;;;;;;7402925;19;1827;-64
2023/04/27 09:14:29;;;;;;;;;;;;;;;;;;7395984;19;1285;-64
2023/04/27 09:16:58;;;;;;;;;;;;;;;;;;7398681;19;714;-64
2023/04/27 09:19:27;;;;;;;;;;;;;;;;;;7398528;19;1695;-64
2023/04/27 09:21:55;;;;;;;;;;;;;;;;;;7396625;19;1283;-64
2023/04/27 09:24:23;;;;;;;;;;;;;;;;;;7398281;19;871;-64
2023/04/27 09:26:51;;;;;;;;;;;;;;;;;;7398783;19;834;-64
2023/04/27 09:29:20;;;;;;;;;;;;;;;;;;7397483;19;782;-63
2023/04/27 09:31:48;;;;;;;;;;;;;;;;;;7395102;19;1846;-62
2023/04/27 09:34:16;;;;;;;;;;;;;;;;;;7398480;19;788;-61
2023/04/27 09:36:44;;;;;;;;;;;;;;;;;;7397819;19;818;-64
2023/04/27 09:39:12;;;;;;;;;;;;;;;;;;7397220;19;833;-64
2023/04/27 09:41:40;;;;;;;;;;;;;;;;;;7398348;19;1287;-61
2023/04/27 09:44:08;;;;;;;;;;;;;;;;;;7397753;19;851;-64
2023/04/27 09:46:37;;;;;;;;;;;;;;;;;;7397432;19;850;-64
2023/04/27 09:49:05;;;;;;;;;;;;;;;;;;7397757;19;783;-64
2023/04/27 09:51:33;;;;;;;;;;;;;;;;;;7395960;19;2220;-64
2023/04/27 09:54:01;;;;;;;;;;;;;;;;;;7397851;19;870;-65
2023/04/27 09:56:29;;;;;;;;;;;;;;;;;;7398147;19;857;-65
2023/04/27 09:58:57;;;;;;;;;;;;;;;;;;7395952;19;859;-65
2023/04/27 10:01:25;;;;;;;;;;;;;;;;;;7397256;19;1330;-64
2023/04/27 10:03:54;;;;;;;;;;;;;;;;;;7397326;19;862;-66
2023/04/27 10:06:22;;;;;;;;;;;;;;;;;;7397293;19;819;-65
2023/04/27 10:08:50;;;;;;;;;;;;;;;;;;7396604;19;855;-63
2023/04/27 10:11:18;;;;;;;;;;;;;;;;;;7394716;19;1849;-64
2023/04/27 10:13:48;;;;;;;;;;;;;;;;;;7397287;19;834;-64
2023/04/27 10:16:16;;;;;;;;;;;;;;;;;;7396960;19;721;-64
2023/04/27 10:18:44;;;;;;;;;;;;;;;;;;7395838;19;699;-65
2023/04/27 10:21:13;;;;;;;;;;;;;;;;;;7393656;19;867;-65
2023/04/27 10:23:41;;;;;;;;;;;;;;;;;;7364740;19;1301;-65
2023/04/27 10:26:09;;;;;;;;;;;;;;;;;;7369160;19;794;-66
2023/04/27 10:28:37;;;;;;;;;;;;;;;;;;7367574;19;826;-64
2023/04/27 10:31:05;;;;;;;;;;;;;;;;;;7367512;19;1838;-66
2023/04/27 10:33:33;;;;;;;;;;;;;;;;;;7366502;19;1285;-65
2023/04/27 10:36:03;;;;;;;;;;;;;;;;;;7369039;19;813;-65
2023/04/27 10:38:31;;;;;;;;;;;;;;;;;;7367908;19;870;-64
2023/04/27 10:41:00;;;;;;;;;;;;;;;;;;7369076;19;784;-65
2023/04/27 10:43:28;;;;;;;;;;;;;;;;;;7366057;19;1345;-66
2023/04/27 10:45:57;;;;;;;;;;;;;;;;;;7368325;19;786;-65
2023/04/27 10:48:25;;;;;;;;;;;;;;;;;;7367726;19;824;-66
2023/04/27 10:50:53;;;;;;;;;;;;;;;;;;7367410;19;1865;-67
2023/04/27 10:53:21;;;;;;;;;;;;;;;;;;7365677;19;1306;-65
2023/04/27 10:55:50;;;;;;;;;;;;;;;;;;7366828;19;848;-66
2023/04/27 10:58:18;;;;;;;;;;;;;;;;;;7367507;19;822;-66
2023/04/27 11:00:46;;;;;;;;;;;;;;;;;;7368084;19;787;-66
2023/04/27 11:03:15;;;;;;;;;;;;;;;;;;7366692;19;1352;-65
2023/04/27 11:05:43;;;;;;;;;;;;;;;;;;7367490;19;799;-66
2023/04/27 11:08:12;;;;;;;;;;;;;;;;;;7366714;19;869;-66
2023/04/27 11:10:40;;;;;;;;;;;;;;;;;;7367561;19;1857;-66
2023/04/27 11:13:09;;;;;;;;;;;;;;;;;;7366069;19;1281;-66
2023/04/27 11:15:37;;;;;;;;;;;;;;;;;;7368131;19;862;-67
2023/04/27 11:18:05;;;;;;;;;;;;;;;;;;7366709;19;772;-67
2023/04/27 11:20:33;;;;;;;;;;;;;;;;;;7367557;19;817;-67
2023/04/27 11:23:01;;;;;;;;;;;;;;;;;;7365783;19;1281;-65
2023/04/27 11:25:29;;;;;;;;;;;;;;;;;;7367778;19;830;-67
2023/04/27 11:27:57;;;;;;;;;;;;;;;;;;7367110;19;907;-66
2023/04/27 11:30:26;;;;;;;;;;;;;;;;;;7366341;19;1841;-68
2023/04/27 11:32:54;;;;;;;;;;;;;;;;;;7364466;19;1291;-66
2023/04/27 11:35:22;;;;;;;;;;;;;;;;;;7365430;19;760;-66
2023/04/27 11:37:50;;;;;;;;;;;;;;;;;;7366499;19;824;-66
2023/04/27 11:40:19;;;;;;;;;;;;;;;;;;7367245;19;871;-66
2023/04/27 11:42:47;;;;;;;;;;;;;;;;;;7365853;19;1310;-66
2023/04/27 11:45:15;;;;;;;;;;;;;;;;;;7368950;19;1225;-66
2023/04/27 11:47:43;;;;;;;;;;;;;;;;;;7365464;19;810;-65
2023/04/27 11:50:11;;;;;;;;;;;;;;;;;;7366403;19;792;-66
2023/04/27 11:52:39;;;;;;;;;;;;;;;;;;7363528;19;1862;-67
2023/04/27 11:55:09;;;;;;;;;;;;;;;;;;7366300;19;835;-66
2023/04/27 11:57:37;;;;;;;;;;;;;;;;;;7366018;19;762;-67
2023/04/27 12:00:09;;;;;;;;;;;;;;;;;;7366400;19;881;-64
2023/04/27 12:02:41;;;;;;;;;;;;;;;;;;7364426;19;1361;-65
2023/04/27 12:05:10;;;;;;;;;;;;;;;;;;7365706;19;854;-65
2023/04/27 12:07:39;;;;;;;;;;;;;;;;;;7366090;19;876;-66
2023/04/27 12:10:07;;;;;;;;;;;;;;;;;;7366301;19;782;-66
2023/04/27 12:12:35;;;;;;;;;;;;;;;;;;7363031;19;1838;-66
2023/04/27 12:15:04;;;;;;;;;;;;;;;;;;7364919;19;845;-64
2023/04/27 12:17:32;;;;;;;;;;;;;;;;;;7365138;19;865;-65
2023/04/27 12:20:00;;;;;;;;;;;;;;;;;;7364667;19;826;-65
2023/04/27 12:22:28;;;;;;;;;;;;;;;;;;7363986;19;1302;-68
2023/04/27 12:24:57;;;;;;;;;;;;;;;;;;7365851;19;766;-67
2023/04/27 12:27:25;;;;;;;;;;;;;;;;;;7365049;19;756;-67
2023/04/27 12:29:53;;;;;;;;;;;;;;;;;;7364788;19;830;-68
2023/04/27 12:32:22;;;;;;;;;;;;;;;;;;7363450;19;1842;-67
2023/04/27 12:34:51;;;;;;;;;;;;;;;;;;7364852;19;853;-67
2023/04/27 12:37:20;;;;;;;;;;;;;;;;;;7368412;19;1092;-67
2023/04/27 12:39:48;;;;;;;;;;;;;;;;;;7362587;19;771;-66
2023/04/27 12:42:18;;;;;;;;;;;;;;;;;;7363710;19;1341;-66
2023/04/27 12:44:46;;;;;;;;;;;;;;;;;;7363779;19;943;-67
2023/04/27 12:47:14;;;;;;;;;;;;;;;;;;7365150;19;817;-67
2023/04/27 12:49:42;;;;;;;;;;;;;;;;;;7364340;19;797;-68
2023/04/27 12:52:11;;;;;;;;;;;;;;;;;;7362279;19;1865;-68
2023/04/27 12:54:39;;;;;;;;;;;;;;;;;;7363651;19;827;-68
2023/04/27 12:57:07;;;;;;;;;;;;;;;;;;7363790;19;795;-67
2023/04/27 12:59:35;;;;;;;;;;;;;;;;;;7363725;19;842;-68
2023/04/27 13:02:04;;;;;;;;;;;;;;;;;;7363892;19;1251;-68
2023/04/27 13:04:32;;;;;;;;;;;;;;;;;;7364098;19;810;-65
2023/04/27 13:07:02;;;;;;;;;;;;;;;;;;7363769;19;861;-66
2023/04/27 13:09:30;;;;;;;;;;;;;;;;;;7363600;19;817;-65
2023/04/27 13:11:59;;;;;;;;;;;;;;;;;;7362618;19;1842;-65
2023/04/27 13:14:27;;;;;;;;;;;;;;;;;;7363094;19;854;-65
2023/04/27 13:16:56;;;;;;;;;;;;;;;;;;7363342;19;758;-66
2023/04/27 13:19:24;;;;;;;;;;;;;;;;;;7363628;19;806;-65
2023/04/27 13:21:52;;;;;;;;;;;;;;;;;;7363165;19;1243;-66
2023/04/27 13:24:23;;;;;;;;;;;;;;;;;;7363783;19;870;-67
2023/04/27 13:26:51;;;;;;;;;;;;;;;;;;7364010;19;722;-67
2023/04/27 13:29:19;;;;;;;;;;;;;;;;;;7362478;19;830;-66
2023/04/27 13:31:47;;;;;;;;;;;;;;;;;;7361870;19;1846;-66
2023/04/27 13:34:16;;;;;;;;;;;;;;;;;;7362982;19;769;-66
2023/04/27 13:36:44;;;;;;;;;;;;;;;;;;7363191;19;802;-66
2023/04/27 13:39:12;;;;;;;;;;;;;;;;;;7362677;19;840;-67
2023/04/27 13:41:41;;;;;;;;;;;;;;;;;;7363736;19;1278;-67
2023/04/27 13:44:09;;;;;;;;;;;;;;;;;;7363590;19;849;-67
2023/04/27 13:46:37;;;;;;;;;;;;;;;;;;7363482;19;868;-66
2023/04/27 13:49:05;;;;;;;;;;;;;;;;;;7362574;19;777;-67
2023/04/27 13:51:34;;;;;;;;;;;;;;;;;;7362049;19;1829;-66
2023/04/27 13:54:02;;;;;;;;;;;;;;;;;;7362395;19;798;-67
2023/04/27 13:56:30;;;;;;;;;;;;;;;;;;7363147;19;881;-66
2023/04/27 13:58:58;;;;;;;;;;;;;;;;;;7370188;19;974;-65
2023/04/27 14:01:27;;;;;;;;;;;;;;;;;;7370475;19;1266;-64
2023/04/27 14:03:55;;;;;;;;;;;;;;;;;;7368765;19;793;-66
2023/04/27 14:06:23;;;;;;;;;;;;;;;;;;7370114;19;846;-66
2023/04/27 14:08:51;;;;;;;;;;;;;;;;;;7369001;19;770;-65
2023/04/27 14:11:22;;;;;;;;;;;;;;;;;;7369219;19;1864;-66
2023/04/27 14:13:50;;;;;;;;;;;;;;;;;;7369621;19;885;-66
2023/04/27 14:16:18;;;;;;;;;;;;;;;;;;7369515;19;790;-66
2023/04/27 14:18:46;;;;;;;;;;;;;;;;;;7367760;19;885;-66
2023/04/27 14:21:15;;;;;;;;;;;;;;;;;;7369139;19;680;-66
2023/04/27 14:23:43;;;;;;;;;;;;;;;;;;7366384;19;1208;-66
2023/04/27 14:26:11;;;;;;;;;;;;;;;;;;7370824;19;943;-67
2023/04/27 14:28:39;;;;;;;;;;;;;;;;;;7367606;19;807;-67
2023/04/27 14:31:07;;;;;;;;;;;;;;;;;;7368256;19;1861;-66
2023/04/27 14:33:35;;;;;;;;;;;;;;;;;;7365576;19;1270;-66
2023/04/27 14:36:03;;;;;;;;;;;;;;;;;;7368127;19;797;-65
2023/04/27 14:38:32;;;;;;;;;;;;;;;;;;7367247;19;854;-65
2023/04/27 14:41:00;;;;;;;;;;;;;;;;;;7366297;19;819;-66
2023/04/27 14:43:28;;;;;;;;;;;;;;;;;;7366233;19;1348;-66
2023/04/27 14:45:56;;;;;;;;;;;;;;;;;;7367733;19;794;-66
2023/04/27 14:48:25;;;;;;;;;;;;;;;;;;7366095;19;862;-66
2023/04/27 14:50:53;;;;;;;;;;;;;;;;;;7367933;19;818;-66
2023/04/27 14:53:21;;;;;;;;;;;;;;;;;;7365315;19;1842;-66
2023/04/27 14:55:49;;;;;;;;;;;;;;;;;;7367760;19;888;-66
2023/04/27 14:58:17;;;;;;;;;;;;;;;;;;7367145;19;795;-66
2023/04/27 15:00:45;;;;;;;;;;;;;;;;;;7367573;19;752;-66
2023/04/27 15:03:14;;;;;;;;;;;;;;;;;;7365371;19;1322;-66
2023/04/27 15:05:42;;;;;;;;;;;;;;;;;;7367724;19;850;-66
2023/04/27 15:08:10;;;;;;;;;;;;;;;;;;7367395;19;795;-65
2023/04/27 15:10:38;;;;;;;;;;;;;;;;;;7367307;19;772;-65
2023/04/27 15:13:06;;;;;;;;;;;;;;;;;;7364982;19;1859;-65
2023/04/27 15:15:34;;;;;;;;;;;;;;;;;;7366299;19;859;-65
2023/04/27 15:18:03;;;;;;;;;;;;;;;;;;7366134;19;835;-66
2023/04/27 15:20:31;;;;;;;;;;;;;;;;;;7366444;19;900;-65
2023/04/27 15:22:59;;;;;;;;;;;;;;;;;;7364918;19;1315;-65
2023/04/27 15:25:27;;;;;;;;;;;;;;;;;;7365374;19;783;-66
2023/04/27 15:27:55;;;;;;;;;;;;;;;;;;7366391;19;777;-65
2023/04/27 15:30:23;;;;;;;;;;;;;;;;;;7366329;19;807;-65
2023/04/27 15:32:52;;;;;;;;;;;;;;;;;;7362734;19;1846;-65
2023/04/27 15:35:20;;;;;;;;;;;;;;;;;;7365730;19;894;-65
2023/04/27 15:37:48;;;;;;;;;;;;;;;;;;7366001;19;803;-65
2023/04/27 15:40:16;;;;;;;;;;;;;;;;;;7365568;19;806;-65
2023/04/27 15:42:44;;;;;;;;;;;;;;;;;;7363878;19;1314;-65
2023/04/27 15:45:12;;;;;;;;;;;;;;;;;;7364861;19;866;-66
2023/04/27 15:47:41;;;;;;;;;;;;;;;;;;7364820;19;836;-66
2023/04/27 15:50:09;;;;;;;;;;;;;;;;;;7365790;19;847;-65
2023/04/27 15:52:37;;;;;;;;;;;;;;;;;;7364468;19;1883;-66
2023/04/27 15:55:06;;;;;;;;;;;;;;;;;;7365857;19;783;-65
2023/04/27 15:57:34;;;;;;;;;;;;;;;;;;7365650;19;815;-66
2023/04/27 16:00:05;;;;;;;;;;;;;;;;;;7365299;19;804;-66
2023/04/27 16:02:38;;;;;;;;;;;;;;;;;;7364452;19;1220;-65
2023/04/27 16:05:07;;;;;;;;;;;;;;;;;;7364968;19;835;-65
2023/04/27 16:07:35;;;;;;;;;;;;;;;;;;7365585;19;907;-66
2023/04/27 16:10:03;;;;;;;;;;;;;;;;;;7365103;19;846;-65
2023/04/27 16:12:31;;;;;;;;;;;;;;;;;;7363843;19;1853;-66
2023/04/27 16:14:59;;;;;;;;;;;;;;;;;;7365534;19;847;-65
2023/04/27 16:17:28;;;;;;;;;;;;;;;;;;7364847;19;877;-65
2023/04/27 16:19:56;;;;;;;;;;;;;;;;;;7363095;19;781;-65
2023/04/27 16:22:24;;;;;;;;;;;;;;;;;;7363613;19;1354;-65
2023/04/27 16:24:52;;;;;;;;;;;;;;;;;;7364735;19;855;-65
2023/04/27 16:27:21;;;;;;;;;;;;;;;;;;7365091;19;850;-65
2023/04/27 16:29:49;;;;;;;;;;;;;;;;;;7364036;19;780;-64
2023/04/27 16:32:18;;;;;;;;;;;;;;;;;;7363416;19;1846;-65
2023/04/27 16:34:47;;;;;;;;;;;;;;;;;;7364057;19;869;-65
2023/04/27 16:37:15;;;;;;;;;;;;;;;;;;7363945;19;831;-65
2023/04/27 16:39:43;;;;;;;;;;;;;;;;;;7363964;19;853;-65
2023/04/27 16:42:12;;;;;;;;;;;;;;;;;;7363445;19;1375;-65
2023/04/27 16:44:40;;;;;;;;;;;;;;;;;;7364892;19;895;-63
2023/04/27 16:47:08;;;;;;;;;;;;;;;;;;7365081;19;847;-65
2023/04/27 16:49:36;;;;;;;;;;;;;;;;;;7364161;19;844;-65
2023/04/27 16:52:04;;;;;;;;;;;;;;;;;;7363208;19;1862;-65
2023/04/27 16:54:33;;;;;;;;;;;;;;;;;;7364949;19;866;-64
2023/04/27 16:57:01;;;;;;;;;;;;;;;;;;7364519;19;807;-65
2023/04/27 16:59:29;;;;;;;;;;;;;;;;;;7361843;19;824;-67
2023/04/27 17:01:57;;;;;;;;;;;;;;;;;;7364167;19;1275;-65
2023/04/27 17:04:25;;;;;;;;;;;;;;;;;;7363547;19;770;-65
2023/04/27 17:06:54;;;;;;;;;;;;;;;;;;7363998;19;843;-65
2023/04/27 17:09:22;;;;;;;;;;;;;;;;;;7363334;19;872;-65
2023/04/27 17:11:50;;;;;;;;;;;;;;;;;;7363866;19;1293;-65
2023/04/27 17:14:19;;;;;;;;;;;;;;;;;;7361162;19;1861;-65
2023/04/27 17:16:47;;;;;;;;;;;;;;;;;;7363492;19;803;-64
2023/04/27 17:19:15;;;;;;;;;;;;;;;;;;7362441;19;1062;-65
2023/04/27 17:21:43;;;;;;;;;;;;;;;;;;7361639;19;1275;-64
2023/04/27 17:24:11;;;;;;;;;;;;;;;;;;7363515;19;881;-65